Time;durP1;ratioP1;P1;durP2;ratioP2;P2;SDS_P1;SDS_P2;PMS_P1;PMS_P2;Temp;Humidity;BMP_temperature;BMP_pressure;BME280_temperature;BME280_humidity;BME280_pressure;Samples;Min_cycle;Max_cycle;Signal;HPM_P1;HPM_P2
2022/03/16 00:02:23;;;;;;;9.38;2.72;;;;;;;5.53;100.00;95774.66;4993146;28;20022;-62
2022/03/16 00:04:54;;;;;;;12.10;2.47;;;;;;;5.57;100.00;95770.56;4993455;28;20081;-63
2022/03/16 00:07:20;;;;;;;9.55;2.67;;;;;;;5.62;100.00;95772.53;4993433;28;20112;-63
2022/03/16 00:09:46;;;;;;;16.92;3.17;;;;;;;5.64;100.00;95765.16;4993452;28;20440;-63
2022/03/16 00:12:13;;;;;;;7.90;2.60;;;;;;;5.57;100.00;95759.09;4991765;28;20041;-63
2022/03/16 00:14:39;;;;;;;7.15;2.17;;;;;;;5.52;100.00;95749.94;4975072;28;20046;-63
2022/03/16 00:17:05;;;;;;;7.47;2.50;;;;;;;5.49;100.00;95742.41;5002968;28;20018;-63
2022/03/16 00:19:31;;;;;;;10.00;2.88;;;;;;;5.44;100.00;95742.25;5004312;28;20029;-62
2022/03/16 00:21:58;;;;;;;7.95;2.97;;;;;;;5.39;100.00;95725.31;4993821;28;20037;-60
2022/03/16 00:24:27;;;;;;;15.93;2.88;;;;;;;5.37;100.00;95728.19;4992533;28;20030;-61
2022/03/16 00:26:53;;;;;;;12.20;2.88;;;;;;;5.32;100.00;95719.22;4998902;28;20113;-61
2022/03/16 00:29:18;;;;;;;9.23;3.08;;;;;;;5.23;100.00;95716.88;4992294;28;20203;-60
2022/03/16 00:31:43;;;;;;;8.90;2.85;;;;;;;5.18;100.00;95723.84;4991463;28;20046;-63
2022/03/16 00:34:09;;;;;;;10.95;3.03;;;;;;;5.10;100.00;95716.97;4992894;28;20400;-63
2022/03/16 00:36:34;;;;;;;9.38;2.67;;;;;;;5.05;100.00;95713.31;4973631;28;20055;-63
2022/03/16 00:39:00;;;;;;;11.77;2.42;;;;;;;4.97;100.00;95716.22;4987822;28;20546;-63
2022/03/16 00:41:25;;;;;;;8.48;2.00;;;;;;;4.89;100.00;95717.31;4981036;28;20030;-63
2022/03/16 00:43:51;;;;;;;8.25;2.88;;;;;;;4.81;100.00;95709.59;4996413;28;20030;-63
2022/03/16 00:46:17;;;;;;;8.50;2.38;;;;;;;4.73;100.00;95709.84;4974364;28;20076;-63
2022/03/16 00:48:44;;;;;;;7.18;2.38;;;;;;;4.66;100.00;95707.19;4992567;28;20037;-62
2022/03/16 00:51:10;;;;;;;10.57;2.80;;;;;;;4.62;100.00;95713.97;4992333;28;20026;-62
2022/03/16 00:53:36;;;;;;;10.65;2.55;;;;;;;4.56;100.00;95704.22;4991749;28;20089;-63
2022/03/16 00:56:02;;;;;;;10.38;2.58;;;;;;;4.51;100.00;95699.53;4992624;28;20113;-62
2022/03/16 00:58:28;;;;;;;13.05;2.75;;;;;;;4.47;100.00;95703.66;4992639;28;20034;-61
2022/03/16 01:00:56;;;;;;;13.52;2.72;;;;;;;4.41;100.00;95704.47;4975798;28;20026;-60
2022/03/16 01:03:22;;;;;;;9.07;2.42;;;;;;;4.38;100.00;95702.25;4991176;28;20062;-61
2022/03/16 01:05:47;;;;;;;9.43;2.72;;;;;;;4.36;100.00;95707.78;4980665;28;20450;-63
2022/03/16 01:08:13;;;;;;;13.82;2.72;;;;;;;4.34;100.00;95708.97;4984987;28;20493;-62
2022/03/16 01:10:39;;;;;;;12.30;2.42;;;;;;;4.34;100.00;95706.34;4992095;28;20041;-61
2022/03/16 01:13:05;;;;;;;10.95;2.47;;;;;;;4.32;100.00;95711.03;4991235;28;20041;-61
2022/03/16 01:15:30;;;;;;;7.80;2.60;;;;;;;4.30;100.00;95715.75;4991981;28;20025;-63
2022/03/16 01:17:56;;;;;;;6.68;2.47;;;;;;;4.24;100.00;95714.75;5005235;28;20022;-62
2022/03/16 01:20:21;;;;;;;12.20;2.55;;;;;;;4.21;100.00;95717.00;4997571;28;20041;-63
2022/03/16 01:22:47;;;;;;;11.55;2.63;;;;;;;4.17;100.00;95713.97;4994178;28;20480;-62
2022/03/16 01:25:12;;;;;;;13.40;3.17;;;;;;;4.14;100.00;95716.22;4991584;28;20045;-61
2022/03/16 01:27:38;;;;;;;10.73;2.63;;;;;;;4.08;100.00;95710.72;4992473;28;20126;-62
2022/03/16 01:30:07;;;;;;;8.57;2.42;;;;;;;4.04;100.00;95717.47;4991363;28;20481;-62
2022/03/16 01:32:32;;;;;;;11.30;2.47;;;;;;;4.01;100.00;95701.97;4996824;28;20042;-63
2022/03/16 01:34:58;;;;;;;9.45;2.25;;;;;;;4.01;100.00;95706.44;4991997;28;20496;-62
2022/03/16 01:37:23;;;;;;;10.25;2.63;;;;;;;3.99;100.00;95708.50;4974200;28;20026;-62
2022/03/16 01:39:49;;;;;;;7.57;2.70;;;;;;;3.96;100.00;95714.22;4975035;28;20107;-62
